sensor_id;sensor_type;location;lat;lon;timestamp;P1;durP1;ratioP1;P2;durP2;ratioP2
42168;SDS011;27838;43.858;25.974;2022-09-27T00:01:05;12.35;;;5.65;;
42168;SDS011;27838;43.858;25.974;2022-09-27T00:03:33;21.17;;;7.28;;
42168;SDS011;27838;43.858;25.974;2022-09-27T00:06:02;11.82;;;5.75;;
42168;SDS011;27838;43.858;25.974;2022-09-27T00:08:34;10.57;;;5.57;;
42168;SDS011;27838;43.858;25.974;2022-09-27T00:11:05;12.57;;;5.75;;
42168;SDS011;27838;43.858;25.974;2022-09-27T00:13:34;12.65;;;6.30;;
42168;SDS011;27838;43.858;25.974;2022-09-27T00:16:01;11.27;;;6.47;;
42168;SDS011;27838;43.858;25.974;2022-09-27T00:18:30;12.25;;;6.57;;
42168;SDS011;27838;43.858;25.974;2022-09-27T00:21:03;10.32;;;6.05;;
42168;SDS011;27838;43.858;25.974;2022-09-27T00:23:33;12.93;;;7.53;;
42168;SDS011;27838;43.858;25.974;2022-09-27T00:26:00;16.77;;;7.88;;
42168;SDS011;27838;43.858;25.974;2022-09-27T00:28:27;20.35;;;8.57;;
42168;SDS011;27838;43.858;25.974;2022-09-27T00:30:58;15.10;;;8.73;;
42168;SDS011;27838;43.858;25.974;2022-09-27T00:33:25;18.03;;;9.37;;
42168;SDS011;27838;43.858;25.974;2022-09-27T00:35:52;14.00;;;9.18;;
42168;SDS011;27838;43.858;25.974;2022-09-27T00:38:20;60.25;;;11.68;;
42168;SDS011;27838;43.858;25.974;2022-09-27T00:40:46;35.13;;;10.13;;
42168;SDS011;27838;43.858;25.974;2022-09-27T00:45:55;30.27;;;9.70;;
42168;SDS011;27838;43.858;25.974;2022-09-27T00:48:27;19.58;;;8.90;;
42168;SDS011;27838;43.858;25.974;2022-09-27T00:50:57;20.27;;;8.20;;
42168;SDS011;27838;43.858;25.974;2022-09-27T00:53:33;24.63;;;8.70;;
42168;SDS011;27838;43.858;25.974;2022-09-27T00:56:05;21.83;;;8.38;;
42168;SDS011;27838;43.858;25.974;2022-09-27T00:58:36;16.42;;;8.15;;
42168;SDS011;27838;43.858;25.974;2022-09-27T01:01:08;29.55;;;9.77;;
42168;SDS011;27838;43.858;25.974;2022-09-27T01:03:50;14.38;;;7.97;;
42168;SDS011;27838;43.858;25.974;2022-09-27T01:06:21;18.10;;;8.48;;
42168;SDS011;27838;43.858;25.974;2022-09-27T01:08:48;15.93;;;8.80;;
42168;SDS011;27838;43.858;25.974;2022-09-27T01:14:31;15.63;;;8.32;;
42168;SDS011;27838;43.858;25.974;2022-09-27T01:28:17;17.30;;;8.40;;
42168;SDS011;27838;43.858;25.974;2022-09-27T01:31:14;15.73;;;8.45;;
42168;SDS011;27838;43.858;25.974;2022-09-27T01:42:37;14.65;;;8.27;;
42168;SDS011;27838;43.858;25.974;2022-09-27T01:46:18;13.43;;;8.25;;
42168;SDS011;27838;43.858;25.974;2022-09-27T01:48:37;12.65;;;8.30;;
42168;SDS011;27838;43.858;25.974;2022-09-27T01:51:16;16.38;;;9.10;;
42168;SDS011;27838;43.858;25.974;2022-09-27T01:53:47;15.65;;;7.80;;
42168;SDS011;27838;43.858;25.974;2022-09-27T01:56:19;13.70;;;8.20;;
42168;SDS011;27838;43.858;25.974;2022-09-27T01:58:52;13.82;;;9.02;;
42168;SDS011;27838;43.858;25.974;2022-09-27T02:01:26;12.95;;;8.80;;
42168;SDS011;27838;43.858;25.974;2022-09-27T02:03:56;21.30;;;8.90;;
42168;SDS011;27838;43.858;25.974;2022-09-27T02:06:30;11.80;;;8.57;;
42168;SDS011;27838;43.858;25.974;2022-09-27T02:09:08;12.02;;;8.35;;
42168;SDS011;27838;43.858;25.974;2022-09-27T02:11:40;14.70;;;8.25;;
42168;SDS011;27838;43.858;25.974;2022-09-27T02:14:16;11.70;;;8.80;;
42168;SDS011;27838;43.858;25.974;2022-09-27T02:16:49;11.32;;;8.73;;
42168;SDS011;27838;43.858;25.974;2022-09-27T02:22:12;10.65;;;8.82;;
42168;SDS011;27838;43.858;25.974;2022-09-27T02:25:00;25.10;;;16.80;;
42168;SDS011;27838;43.858;25.974;2022-09-27T02:30:13;13.75;;;8.45;;
42168;SDS011;27838;43.858;25.974;2022-09-27T02:32:41;13.43;;;8.93;;
42168;SDS011;27838;43.858;25.974;2022-09-27T02:35:10;12.60;;;9.02;;
42168;SDS011;27838;43.858;25.974;2022-09-27T02:37:41;13.68;;;8.80;;
42168;SDS011;27838;43.858;25.974;2022-09-27T02:40:08;12.40;;;8.27;;
42168;SDS011;27838;43.858;25.974;2022-09-27T02:42:35;17.30;;;9.60;;
42168;SDS011;27838;43.858;25.974;2022-09-27T02:45:03;18.42;;;9.30;;
42168;SDS011;27838;43.858;25.974;2022-09-27T02:47:43;13.77;;;9.07;;
42168;SDS011;27838;43.858;25.974;2022-09-27T02:56:18;10.57;;;8.63;;
42168;SDS011;27838;43.858;25.974;2022-09-27T03:04:40;15.38;;;9.35;;
42168;SDS011;27838;43.858;25.974;2022-09-27T03:07:28;13.38;;;9.38;;
42168;SDS011;27838;43.858;25.974;2022-09-27T03:09:56;13.60;;;9.77;;
42168;SDS011;27838;43.858;25.974;2022-09-27T03:12:22;18.85;;;9.43;;
42168;SDS011;27838;43.858;25.974;2022-09-27T03:14:52;12.35;;;8.25;;
42168;SDS011;27838;43.858;25.974;2022-09-27T03:17:21;17.40;;;9.60;;
42168;SDS011;27838;43.858;25.974;2022-09-27T03:19:48;13.45;;;8.50;;
42168;SDS011;27838;43.858;25.974;2022-09-27T03:22:15;17.17;;;8.98;;
42168;SDS011;27838;43.858;25.974;2022-09-27T03:24:42;14.52;;;8.50;;
42168;SDS011;27838;43.858;25.974;2022-09-27T03:27:09;20.13;;;9.43;;
42168;SDS011;27838;43.858;25.974;2022-09-27T03:29:37;30.40;;;10.45;;
42168;SDS011;27838;43.858;25.974;2022-09-27T03:32:03;16.60;;;10.57;;
42168;SDS011;27838;43.858;25.974;2022-09-27T03:34:30;18.70;;;8.88;;
42168;SDS011;27838;43.858;25.974;2022-09-27T03:36:56;17.17;;;8.65;;
42168;SDS011;27838;43.858;25.974;2022-09-27T03:39:23;16.05;;;9.30;;
42168;SDS011;27838;43.858;25.974;2022-09-27T03:41:50;10.73;;;8.30;;
42168;SDS011;27838;43.858;25.974;2022-09-27T03:44:17;15.82;;;7.93;;
42168;SDS011;27838;43.858;25.974;2022-09-27T03:46:43;12.55;;;8.20;;
42168;SDS011;27838;43.858;25.974;2022-09-27T03:49:10;15.95;;;8.63;;
42168;SDS011;27838;43.858;25.974;2022-09-27T03:51:37;14.63;;;9.02;;
42168;SDS011;27838;43.858;25.974;2022-09-27T03:54:03;14.65;;;8.82;;
42168;SDS011;27838;43.858;25.974;2022-09-27T03:56:30;13.30;;;8.23;;
42168;SDS011;27838;43.858;25.974;2022-09-27T03:58:57;15.98;;;9.65;;
42168;SDS011;27838;43.858;25.974;2022-09-27T04:01:23;13.98;;;8.52;;
42168;SDS011;27838;43.858;25.974;2022-09-27T04:03:51;14.95;;;8.95;;
42168;SDS011;27838;43.858;25.974;2022-09-27T04:06:18;13.88;;;8.90;;
42168;SDS011;27838;43.858;25.974;2022-09-27T04:08:46;11.45;;;8.55;;
42168;SDS011;27838;43.858;25.974;2022-09-27T04:11:13;20.13;;;9.15;;
42168;SDS011;27838;43.858;25.974;2022-09-27T04:13:40;15.95;;;8.73;;
42168;SDS011;27838;43.858;25.974;2022-09-27T04:16:08;13.63;;;9.18;;
42168;SDS011;27838;43.858;25.974;2022-09-27T04:18:35;16.00;;;8.77;;
42168;SDS011;27838;43.858;25.974;2022-09-27T04:21:02;20.20;;;9.00;;
42168;SDS011;27838;43.858;25.974;2022-09-27T04:23:28;29.27;;;10.25;;
42168;SDS011;27838;43.858;25.974;2022-09-27T04:25:55;134.02;;;17.27;;
42168;SDS011;27838;43.858;25.974;2022-09-27T04:28:22;78.60;;;13.50;;
42168;SDS011;27838;43.858;25.974;2022-09-27T04:30:48;155.45;;;15.85;;
42168;SDS011;27838;43.858;25.974;2022-09-27T04:33:15;237.18;;;19.73;;
42168;SDS011;27838;43.858;25.974;2022-09-27T04:35:42;104.38;;;15.57;;
42168;SDS011;27838;43.858;25.974;2022-09-27T04:38:26;59.33;;;11.07;;
42168;SDS011;27838;43.858;25.974;2022-09-27T04:40:53;16.77;;;9.50;;
42168;SDS011;27838;43.858;25.974;2022-09-27T04:43:19;16.15;;;10.60;;
42168;SDS011;27838;43.858;25.974;2022-09-27T04:45:46;55.58;;;11.88;;
42168;SDS011;27838;43.858;25.974;2022-09-27T04:48:13;41.60;;;10.80;;
42168;SDS011;27838;43.858;25.974;2022-09-27T04:50:39;23.20;;;10.38;;
42168;SDS011;27838;43.858;25.974;2022-09-27T04:53:06;19.48;;;10.27;;
42168;SDS011;27838;43.858;25.974;2022-09-27T04:55:33;29.20;;;13.73;;
42168;SDS011;27838;43.858;25.974;2022-09-27T04:57:59;20.15;;;12.02;;
42168;SDS011;27838;43.858;25.974;2022-09-27T05:00:26;21.90;;;10.98;;
42168;SDS011;27838;43.858;25.974;2022-09-27T05:02:54;24.50;;;11.60;;
42168;SDS011;27838;43.858;25.974;2022-09-27T05:05:20;16.17;;;10.30;;
42168;SDS011;27838;43.858;25.974;2022-09-27T05:07:47;21.05;;;11.10;;
42168;SDS011;27838;43.858;25.974;2022-09-27T05:10:14;22.50;;;13.18;;
42168;SDS011;27838;43.858;25.974;2022-09-27T05:12:41;22.10;;;12.77;;
42168;SDS011;27838;43.858;25.974;2022-09-27T05:15:10;30.35;;;16.05;;
42168;SDS011;27838;43.858;25.974;2022-09-27T05:17:36;21.00;;;14.27;;
42168;SDS011;27838;43.858;25.974;2022-09-27T05:20:09;16.38;;;10.68;;
42168;SDS011;27838;43.858;25.974;2022-09-27T05:22:36;16.45;;;10.57;;
42168;SDS011;27838;43.858;25.974;2022-09-27T05:25:04;16.00;;;11.27;;
42168;SDS011;27838;43.858;25.974;2022-09-27T05:27:31;16.95;;;10.93;;
42168;SDS011;27838;43.858;25.974;2022-09-27T05:29:58;16.83;;;11.70;;
42168;SDS011;27838;43.858;25.974;2022-09-27T05:32:26;12.85;;;11.20;;
42168;SDS011;27838;43.858;25.974;2022-09-27T05:34:53;16.88;;;11.13;;
42168;SDS011;27838;43.858;25.974;2022-09-27T05:37:20;15.18;;;10.93;;
42168;SDS011;27838;43.858;25.974;2022-09-27T05:39:47;15.18;;;11.13;;
42168;SDS011;27838;43.858;25.974;2022-09-27T05:42:19;20.95;;;12.57;;
42168;SDS011;27838;43.858;25.974;2022-09-27T05:44:48;16.88;;;11.25;;
42168;SDS011;27838;43.858;25.974;2022-09-27T05:47:18;13.43;;;11.20;;
42168;SDS011;27838;43.858;25.974;2022-09-27T05:49:45;26.38;;;14.90;;
42168;SDS011;27838;43.858;25.974;2022-09-27T05:52:11;22.60;;;13.80;;
42168;SDS011;27838;43.858;25.974;2022-09-27T05:54:38;18.70;;;13.73;;
42168;SDS011;27838;43.858;25.974;2022-09-27T05:57:04;18.60;;;13.38;;
42168;SDS011;27838;43.858;25.974;2022-09-27T05:59:32;16.38;;;13.57;;
42168;SDS011;27838;43.858;25.974;2022-09-27T06:01:59;23.65;;;13.70;;
42168;SDS011;27838;43.858;25.974;2022-09-27T06:04:25;22.00;;;13.48;;
42168;SDS011;27838;43.858;25.974;2022-09-27T06:06:52;21.08;;;13.25;;
42168;SDS011;27838;43.858;25.974;2022-09-27T06:09:19;16.40;;;12.60;;
42168;SDS011;27838;43.858;25.974;2022-09-27T06:11:45;19.25;;;12.55;;
42168;SDS011;27838;43.858;25.974;2022-09-27T06:14:12;17.13;;;12.68;;
42168;SDS011;27838;43.858;25.974;2022-09-27T06:16:39;17.85;;;11.98;;
42168;SDS011;27838;43.858;25.974;2022-09-27T06:19:06;18.33;;;12.85;;
42168;SDS011;27838;43.858;25.974;2022-09-27T06:21:33;17.08;;;12.38;;
42168;SDS011;27838;43.858;25.974;2022-09-27T06:23:59;19.73;;;13.32;;
42168;SDS011;27838;43.858;25.974;2022-09-27T06:26:26;14.73;;;13.18;;
42168;SDS011;27838;43.858;25.974;2022-09-27T06:28:53;18.15;;;13.75;;
42168;SDS011;27838;43.858;25.974;2022-09-27T06:31:20;17.73;;;13.18;;
42168;SDS011;27838;43.858;25.974;2022-09-27T06:33:48;18.58;;;13.93;;
42168;SDS011;27838;43.858;25.974;2022-09-27T06:36:15;16.15;;;12.68;;
42168;SDS011;27838;43.858;25.974;2022-09-27T06:38:42;15.00;;;11.88;;
42168;SDS011;27838;43.858;25.974;2022-09-27T06:41:10;17.00;;;12.23;;
42168;SDS011;27838;43.858;25.974;2022-09-27T06:43:37;14.05;;;12.40;;
42168;SDS011;27838;43.858;25.974;2022-09-27T06:46:03;14.77;;;12.38;;
42168;SDS011;27838;43.858;25.974;2022-09-27T06:48:31;18.42;;;12.95;;
42168;SDS011;27838;43.858;25.974;2022-09-27T06:51:00;18.48;;;12.32;;
42168;SDS011;27838;43.858;25.974;2022-09-27T06:53:27;20.20;;;13.65;;
42168;SDS011;27838;43.858;25.974;2022-09-27T06:55:56;20.60;;;14.57;;
42168;SDS011;27838;43.858;25.974;2022-09-27T06:58:24;21.00;;;14.00;;
42168;SDS011;27838;43.858;25.974;2022-09-27T07:01:08;18.55;;;14.25;;
42168;SDS011;27838;43.858;25.974;2022-09-27T07:03:35;20.10;;;14.63;;
42168;SDS011;27838;43.858;25.974;2022-09-27T07:06:06;23.75;;;15.68;;
42168;SDS011;27838;43.858;25.974;2022-09-27T07:08:38;20.88;;;14.95;;
42168;SDS011;27838;43.858;25.974;2022-09-27T07:11:05;34.20;;;17.17;;
42168;SDS011;27838;43.858;25.974;2022-09-27T07:13:33;19.55;;;14.88;;
42168;SDS011;27838;43.858;25.974;2022-09-27T07:16:04;19.88;;;15.13;;
42168;SDS011;27838;43.858;25.974;2022-09-27T07:18:31;22.55;;;15.70;;
42168;SDS011;27838;43.858;25.974;2022-09-27T07:21:00;19.35;;;15.52;;
42168;SDS011;27838;43.858;25.974;2022-09-27T07:23:27;23.58;;;15.95;;
42168;SDS011;27838;43.858;25.974;2022-09-27T07:25:54;24.48;;;15.50;;
42168;SDS011;27838;43.858;25.974;2022-09-27T07:28:20;21.48;;;14.18;;
42168;SDS011;27838;43.858;25.974;2022-09-27T07:30:47;25.05;;;16.58;;
42168;SDS011;27838;43.858;25.974;2022-09-27T07:33:14;18.17;;;12.48;;
42168;SDS011;27838;43.858;25.974;2022-09-27T07:35:41;17.25;;;10.90;;
42168;SDS011;27838;43.858;25.974;2022-09-27T07:38:08;18.42;;;11.70;;
42168;SDS011;27838;43.858;25.974;2022-09-27T07:40:38;28.25;;;12.40;;
42168;SDS011;27838;43.858;25.974;2022-09-27T07:43:06;20.98;;;12.20;;
42168;SDS011;27838;43.858;25.974;2022-09-27T07:45:33;21.45;;;14.25;;
42168;SDS011;27838;43.858;25.974;2022-09-27T07:48:05;21.38;;;11.20;;
42168;SDS011;27838;43.858;25.974;2022-09-27T07:50:33;24.88;;;10.90;;
42168;SDS011;27838;43.858;25.974;2022-09-27T07:53:02;18.63;;;10.02;;
42168;SDS011;27838;43.858;25.974;2022-09-27T07:55:30;15.95;;;11.13;;
42168;SDS011;27838;43.858;25.974;2022-09-27T07:58:03;22.50;;;11.82;;
42168;SDS011;27838;43.858;25.974;2022-09-27T08:00:33;11.55;;;8.27;;
42168;SDS011;27838;43.858;25.974;2022-09-27T08:03:09;14.60;;;8.88;;
42168;SDS011;27838;43.858;25.974;2022-09-27T08:05:40;14.57;;;7.85;;
42168;SDS011;27838;43.858;25.974;2022-09-27T08:08:07;14.13;;;8.70;;
42168;SDS011;27838;43.858;25.974;2022-09-27T08:10:34;12.52;;;9.10;;
42168;SDS011;27838;43.858;25.974;2022-09-27T08:13:01;12.23;;;8.52;;
42168;SDS011;27838;43.858;25.974;2022-09-27T08:15:30;12.65;;;9.02;;
42168;SDS011;27838;43.858;25.974;2022-09-27T08:18:02;16.23;;;10.70;;
42168;SDS011;27838;43.858;25.974;2022-09-27T08:20:33;19.05;;;12.70;;
42168;SDS011;27838;43.858;25.974;2022-09-27T08:23:04;73.75;;;17.52;;
42168;SDS011;27838;43.858;25.974;2022-09-27T08:25:33;17.45;;;13.23;;
42168;SDS011;27838;43.858;25.974;2022-09-27T08:28:01;27.30;;;14.50;;
42168;SDS011;27838;43.858;25.974;2022-09-27T08:30:29;24.38;;;15.05;;
42168;SDS011;27838;43.858;25.974;2022-09-27T08:32:57;56.03;;;18.90;;
42168;SDS011;27838;43.858;25.974;2022-09-27T08:35:25;23.40;;;14.32;;
42168;SDS011;27838;43.858;25.974;2022-09-27T08:37:56;20.25;;;15.30;;
42168;SDS011;27838;43.858;25.974;2022-09-27T08:41:11;22.75;;;16.05;;
42168;SDS011;27838;43.858;25.974;2022-09-27T08:43:42;26.80;;;15.15;;
42168;SDS011;27838;43.858;25.974;2022-09-27T08:49:04;20.70;;;14.55;;
42168;SDS011;27838;43.858;25.974;2022-09-27T08:51:35;19.88;;;15.45;;
42168;SDS011;27838;43.858;25.974;2022-09-27T08:54:07;24.30;;;13.95;;
42168;SDS011;27838;43.858;25.974;2022-09-27T08:56:43;25.20;;;13.15;;
42168;SDS011;27838;43.858;25.974;2022-09-27T08:59:12;16.63;;;12.88;;
42168;SDS011;27838;43.858;25.974;2022-09-27T09:01:45;30.20;;;13.50;;
42168;SDS011;27838;43.858;25.974;2022-09-27T09:04:13;25.08;;;13.05;;
42168;SDS011;27838;43.858;25.974;2022-09-27T09:09:53;31.98;;;16.13;;
42168;SDS011;27838;43.858;25.974;2022-09-27T09:13:10;27.60;;;14.02;;
42168;SDS011;27838;43.858;25.974;2022-09-27T09:15:43;23.75;;;13.02;;
42168;SDS011;27838;43.858;25.974;2022-09-27T09:18:29;20.13;;;13.55;;
42168;SDS011;27838;43.858;25.974;2022-09-27T09:21:32;29.58;;;13.80;;
42168;SDS011;27838;43.858;25.974;2022-09-27T09:34:37;26.25;;;13.73;;
42168;SDS011;27838;43.858;25.974;2022-09-27T09:37:11;32.28;;;13.73;;
42168;SDS011;27838;43.858;25.974;2022-09-27T09:42:23;37.58;;;15.43;;
42168;SDS011;27838;43.858;25.974;2022-09-27T09:44:58;33.17;;;15.20;;
42168;SDS011;27838;43.858;25.974;2022-09-27T09:50:27;33.13;;;14.52;;
42168;SDS011;27838;43.858;25.974;2022-09-27T09:56:04;22.63;;;13.88;;
42168;SDS011;27838;43.858;25.974;2022-09-27T10:01:13;25.83;;;14.80;;
42168;SDS011;27838;43.858;25.974;2022-09-27T10:03:46;37.20;;;15.32;;
42168;SDS011;27838;43.858;25.974;2022-09-27T10:06:13;31.20;;;14.65;;
42168;SDS011;27838;43.858;25.974;2022-09-27T10:08:42;24.35;;;12.63;;
42168;SDS011;27838;43.858;25.974;2022-09-27T10:11:15;26.42;;;12.88;;
42168;SDS011;27838;43.858;25.974;2022-09-27T10:13:49;22.27;;;14.20;;
42168;SDS011;27838;43.858;25.974;2022-09-27T10:16:18;29.42;;;13.40;;
42168;SDS011;27838;43.858;25.974;2022-09-27T10:18:45;22.77;;;12.85;;
42168;SDS011;27838;43.858;25.974;2022-09-27T10:21:27;26.05;;;15.13;;
42168;SDS011;27838;43.858;25.974;2022-09-27T10:24:01;24.02;;;15.50;;
42168;SDS011;27838;43.858;25.974;2022-09-27T10:26:34;34.55;;;16.00;;
42168;SDS011;27838;43.858;25.974;2022-09-27T10:31:54;27.55;;;15.95;;
42168;SDS011;27838;43.858;25.974;2022-09-27T10:34:34;47.92;;;17.25;;
42168;SDS011;27838;43.858;25.974;2022-09-27T10:37:14;24.13;;;15.35;;
42168;SDS011;27838;43.858;25.974;2022-09-27T10:39:46;33.38;;;15.60;;
42168;SDS011;27838;43.858;25.974;2022-09-27T10:42:31;31.90;;;15.30;;
42168;SDS011;27838;43.858;25.974;2022-09-27T10:47:56;42.53;;;15.70;;
42168;SDS011;27838;43.858;25.974;2022-09-27T10:50:26;36.47;;;15.25;;
42168;SDS011;27838;43.858;25.974;2022-09-27T10:53:11;24.58;;;13.65;;
42168;SDS011;27838;43.858;25.974;2022-09-27T10:55:41;40.80;;;13.88;;
42168;SDS011;27838;43.858;25.974;2022-09-27T10:58:15;41.05;;;15.00;;
42168;SDS011;27838;43.858;25.974;2022-09-27T11:00:52;35.00;;;13.30;;
42168;SDS011;27838;43.858;25.974;2022-09-27T11:03:20;23.55;;;11.93;;
42168;SDS011;27838;43.858;25.974;2022-09-27T11:05:49;23.58;;;12.55;;
42168;SDS011;27838;43.858;25.974;2022-09-27T11:11:04;18.13;;;12.65;;
42168;SDS011;27838;43.858;25.974;2022-09-27T11:13:32;17.20;;;12.98;;
42168;SDS011;27838;43.858;25.974;2022-09-27T11:25:48;31.63;;;13.70;;
42168;SDS011;27838;43.858;25.974;2022-09-27T11:30:54;52.17;;;14.80;;
42168;SDS011;27838;43.858;25.974;2022-09-27T11:48:02;20.55;;;11.55;;
42168;SDS011;27838;43.858;25.974;2022-09-27T11:53:33;26.65;;;11.40;;
42168;SDS011;27838;43.858;25.974;2022-09-27T12:01:55;28.83;;;11.43;;
42168;SDS011;27838;43.858;25.974;2022-09-27T12:10:37;23.92;;;10.95;;
42168;SDS011;27838;43.858;25.974;2022-09-27T12:13:08;25.48;;;11.40;;
42168;SDS011;27838;43.858;25.974;2022-09-27T12:15:40;22.70;;;11.02;;
42168;SDS011;27838;43.858;25.974;2022-09-27T12:18:25;21.05;;;10.77;;
42168;SDS011;27838;43.858;25.974;2022-09-27T12:20:56;29.73;;;11.48;;
42168;SDS011;27838;43.858;25.974;2022-09-27T12:23:38;23.35;;;10.38;;
42168;SDS011;27838;43.858;25.974;2022-09-27T12:26:44;23.55;;;9.88;;
42168;SDS011;27838;43.858;25.974;2022-09-27T12:29:31;15.35;;;9.38;;
42168;SDS011;27838;43.858;25.974;2022-09-27T12:32:05;21.55;;;10.88;;
42168;SDS011;27838;43.858;25.974;2022-09-27T12:35:27;21.45;;;10.45;;
42168;SDS011;27838;43.858;25.974;2022-09-27T12:40:39;33.13;;;11.73;;
42168;SDS011;27838;43.858;25.974;2022-09-27T12:43:13;85.28;;;17.00;;
42168;SDS011;27838;43.858;25.974;2022-09-27T12:48:35;41.40;;;12.95;;
42168;SDS011;27838;43.858;25.974;2022-09-27T12:51:25;26.15;;;11.38;;
42168;SDS011;27838;43.858;25.974;2022-09-27T13:13:54;12.45;;;5.70;;
42168;SDS011;27838;43.858;25.974;2022-09-27T13:16:23;10.73;;;6.03;;
42168;SDS011;27838;43.858;25.974;2022-09-27T13:18:51;6.40;;;5.22;;
42168;SDS011;27838;43.858;25.974;2022-09-27T13:29:48;10.10;;;6.60;;
42168;SDS011;27838;43.858;25.974;2022-09-27T13:32:19;6.43;;;5.82;;
42168;SDS011;27838;43.858;25.974;2022-09-27T13:34:57;8.98;;;5.70;;
42168;SDS011;27838;43.858;25.974;2022-09-27T13:37:55;13.90;;;7.60;;
42168;SDS011;27838;43.858;25.974;2022-09-27T13:40:34;11.93;;;7.28;;
42168;SDS011;27838;43.858;25.974;2022-09-27T13:48:16;13.02;;;7.68;;
42168;SDS011;27838;43.858;25.974;2022-09-27T13:53:24;12.57;;;7.38;;
42168;SDS011;27838;43.858;25.974;2022-09-27T13:56:01;14.98;;;6.85;;
42168;SDS011;27838;43.858;25.974;2022-09-27T14:00:57;9.95;;;6.07;;
42168;SDS011;27838;43.858;25.974;2022-09-27T14:06:19;8.75;;;5.47;;
42168;SDS011;27838;43.858;25.974;2022-09-27T14:08:51;7.28;;;5.63;;
42168;SDS011;27838;43.858;25.974;2022-09-27T14:11:29;6.35;;;5.70;;
42168;SDS011;27838;43.858;25.974;2022-09-27T14:14:01;8.45;;;5.70;;
42168;SDS011;27838;43.858;25.974;2022-09-27T14:16:32;8.50;;;6.38;;
42168;SDS011;27838;43.858;25.974;2022-09-27T14:19:01;9.38;;;6.60;;
42168;SDS011;27838;43.858;25.974;2022-09-27T14:21:30;10.35;;;7.68;;
42168;SDS011;27838;43.858;25.974;2022-09-27T14:29:52;12.85;;;5.78;;
42168;SDS011;27838;43.858;25.974;2022-09-27T14:32:25;24.30;;;8.98;;
42168;SDS011;27838;43.858;25.974;2022-09-27T14:37:52;16.52;;;8.02;;
42168;SDS011;27838;43.858;25.974;2022-09-27T14:40:20;17.42;;;7.00;;
42168;SDS011;27838;43.858;25.974;2022-09-27T14:42:51;23.27;;;8.20;;
42168;SDS011;27838;43.858;25.974;2022-09-27T14:45:31;22.67;;;7.40;;
42168;SDS011;27838;43.858;25.974;2022-09-27T14:48:02;22.02;;;7.80;;
42168;SDS011;27838;43.858;25.974;2022-09-27T14:50:52;34.47;;;8.82;;
42168;SDS011;27838;43.858;25.974;2022-09-27T14:53:29;23.88;;;8.68;;
42168;SDS011;27838;43.858;25.974;2022-09-27T14:56:00;38.63;;;9.20;;
42168;SDS011;27838;43.858;25.974;2022-09-27T14:58:27;20.67;;;7.63;;
42168;SDS011;27838;43.858;25.974;2022-09-27T15:00:55;20.00;;;8.25;;
42168;SDS011;27838;43.858;25.974;2022-09-27T15:03:27;33.50;;;10.13;;
42168;SDS011;27838;43.858;25.974;2022-09-27T15:05:55;34.10;;;9.80;;
42168;SDS011;27838;43.858;25.974;2022-09-27T15:08:24;33.85;;;9.32;;
42168;SDS011;27838;43.858;25.974;2022-09-27T15:10:57;22.95;;;8.82;;
42168;SDS011;27838;43.858;25.974;2022-09-27T15:13:24;27.63;;;8.48;;
42168;SDS011;27838;43.858;25.974;2022-09-27T15:15:51;21.83;;;8.15;;
42168;SDS011;27838;43.858;25.974;2022-09-27T15:20:58;25.90;;;8.27;;
42168;SDS011;27838;43.858;25.974;2022-09-27T15:23:26;32.75;;;8.40;;
42168;SDS011;27838;43.858;25.974;2022-09-27T15:26:06;36.17;;;9.05;;
42168;SDS011;27838;43.858;25.974;2022-09-27T15:28:43;17.60;;;8.10;;
42168;SDS011;27838;43.858;25.974;2022-09-27T15:31:11;26.80;;;8.25;;
42168;SDS011;27838;43.858;25.974;2022-09-27T15:33:39;15.60;;;7.88;;
42168;SDS011;27838;43.858;25.974;2022-09-27T15:36:08;30.33;;;9.35;;
42168;SDS011;27838;43.858;25.974;2022-09-27T15:38:39;40.25;;;9.75;;
42168;SDS011;27838;43.858;25.974;2022-09-27T15:43:46;13.60;;;7.15;;
42168;SDS011;27838;43.858;25.974;2022-09-27T15:51:43;20.33;;;8.30;;
42168;SDS011;27838;43.858;25.974;2022-09-27T15:54:20;37.83;;;9.88;;
42168;SDS011;27838;43.858;25.974;2022-09-27T15:56:49;21.77;;;9.73;;
42168;SDS011;27838;43.858;25.974;2022-09-27T16:01:46;32.05;;;9.82;;
42168;SDS011;27838;43.858;25.974;2022-09-27T16:04:16;41.58;;;13.25;;
42168;SDS011;27838;43.858;25.974;2022-09-27T16:06:42;37.95;;;10.88;;
42168;SDS011;27838;43.858;25.974;2022-09-27T16:09:18;22.35;;;9.35;;
42168;SDS011;27838;43.858;25.974;2022-09-27T16:11:46;22.98;;;9.07;;
42168;SDS011;27838;43.858;25.974;2022-09-27T16:14:14;29.58;;;8.85;;
42168;SDS011;27838;43.858;25.974;2022-09-27T16:16:47;24.20;;;9.15;;
42168;SDS011;27838;43.858;25.974;2022-09-27T16:19:16;24.33;;;13.00;;
42168;SDS011;27838;43.858;25.974;2022-09-27T16:21:43;33.50;;;21.60;;
42168;SDS011;27838;43.858;25.974;2022-09-27T16:24:10;31.38;;;20.73;;
42168;SDS011;27838;43.858;25.974;2022-09-27T16:26:37;28.52;;;15.23;;
42168;SDS011;27838;43.858;25.974;2022-09-27T16:29:08;34.30;;;16.63;;
42168;SDS011;27838;43.858;25.974;2022-09-27T16:31:37;46.05;;;16.95;;
42168;SDS011;27838;43.858;25.974;2022-09-27T16:34:05;46.80;;;14.60;;
42168;SDS011;27838;43.858;25.974;2022-09-27T16:36:33;53.10;;;14.60;;
42168;SDS011;27838;43.858;25.974;2022-09-27T16:39:00;60.17;;;16.65;;
42168;SDS011;27838;43.858;25.974;2022-09-27T16:41:28;63.45;;;15.15;;
42168;SDS011;27838;43.858;25.974;2022-09-27T16:43:56;32.25;;;11.68;;
42168;SDS011;27838;43.858;25.974;2022-09-27T16:46:22;33.17;;;12.55;;
42168;SDS011;27838;43.858;25.974;2022-09-27T16:48:49;22.98;;;10.32;;
42168;SDS011;27838;43.858;25.974;2022-09-27T16:51:17;23.90;;;10.38;;
42168;SDS011;27838;43.858;25.974;2022-09-27T16:54:14;30.73;;;11.75;;
42168;SDS011;27838;43.858;25.974;2022-09-27T16:56:41;18.98;;;10.45;;
42168;SDS011;27838;43.858;25.974;2022-09-27T16:59:08;26.98;;;12.60;;
42168;SDS011;27838;43.858;25.974;2022-09-27T17:01:35;41.85;;;13.82;;
42168;SDS011;27838;43.858;25.974;2022-09-27T17:04:02;52.38;;;15.95;;
42168;SDS011;27838;43.858;25.974;2022-09-27T17:06:28;36.30;;;13.82;;
42168;SDS011;27838;43.858;25.974;2022-09-27T17:08:55;42.35;;;13.07;;
42168;SDS011;27838;43.858;25.974;2022-09-27T17:11:23;43.63;;;13.98;;
42168;SDS011;27838;43.858;25.974;2022-09-27T17:13:52;32.67;;;12.90;;
42168;SDS011;27838;43.858;25.974;2022-09-27T17:16:20;33.15;;;12.85;;
42168;SDS011;27838;43.858;25.974;2022-09-27T17:18:47;41.53;;;12.45;;
42168;SDS011;27838;43.858;25.974;2022-09-27T17:21:14;38.70;;;14.10;;
42168;SDS011;27838;43.858;25.974;2022-09-27T17:23:40;43.92;;;14.50;;
42168;SDS011;27838;43.858;25.974;2022-09-27T17:26:08;44.50;;;17.08;;
42168;SDS011;27838;43.858;25.974;2022-09-27T17:28:41;29.08;;;14.77;;
42168;SDS011;27838;43.858;25.974;2022-09-27T17:31:08;28.95;;;12.57;;
42168;SDS011;27838;43.858;25.974;2022-09-27T17:33:36;33.97;;;13.02;;
42168;SDS011;27838;43.858;25.974;2022-09-27T17:38:34;42.15;;;17.45;;
42168;SDS011;27838;43.858;25.974;2022-09-27T17:41:03;37.17;;;14.13;;
42168;SDS011;27838;43.858;25.974;2022-09-27T17:43:31;40.13;;;15.27;;
42168;SDS011;27838;43.858;25.974;2022-09-27T17:46:05;42.65;;;14.85;;
42168;SDS011;27838;43.858;25.974;2022-09-27T17:48:34;34.95;;;15.52;;